Blenker, Wisconsin
Current Conditions -  °F | °C
As of 10:54 PM on Sunday 21 Dec 2014 (Local Time) from KMFI Reporting Station
Haze Haze  
Wind Chill: -4°   Ceiling: 600
Heat Index:   Visibility: 4mi
Dew Point:   Wind: 14mph
Humidity: 92%   Direction: 170°S
Pressure: 29.85"   Gusts: NA
Location:  44.61°N, 89.92°W
Report Text: KMFI 220454Z AUTO 17012KT 4SM BR OVC006 01/00 A2985 RMK AO2 UPE0355 SLP122 P0000 T00110000
Loading
Personal Weather Stations






























Interactive Weather Map New forecast layout! Learn more

10-Day Weather Forecast

Advertisements
Track Severe Weather on mobile